KCIC/CIC METAR and TAF weather

Enter ICAO airport designator
Station Type Date Time Source
KCIC METAR 2019/06/16 06:35 UTC NOAA

KCIC 160635Z AUTO 00000KT 10SM CLR 23/15 A2986 RMK AO1


Station Type Date Time Source
KCIC Decoded METAR 2019/06/16 06:35 UTC NOAA

Chico Municipal , CA, United States (KCIC) 39-48N 121-51W
Jun 16, 2019 - 02:35 AM EDT / 2019.06.16 0635 UTC
Wind: Calm:0
Visibility: 10 mile(s):0
Sky conditions: clear
Temperature: 73 F (23 C)
Dew Point: 59 F (15 C)
Relative Humidity: 60%
Pressure (altimeter): 29.86 in. Hg (1011 hPa)
ob: KCIC 160635Z AUTO 00000KT 10SM CLR 23/15 A2986 RMK AO1
cycle: 6

Station Type Date Time Source
KCIC TAF UTC NOAA

Error!

Example: see airport list